createdAt,value
2022-10-13T00:00:53.114Z,100735.44
2022-10-13T00:03:21.187Z,100736.09
2022-10-13T00:05:50.573Z,100729.66
2022-10-13T00:08:20.615Z,100725.69
2022-10-13T00:10:50.277Z,100729.13
2022-10-13T00:13:19.050Z,100723.81
2022-10-13T00:15:49.194Z,100723.72
2022-10-13T00:18:17.777Z,100720.34
2022-10-13T00:20:47.585Z,100722.88
2022-10-13T00:23:16.151Z,100737.03
2022-10-13T00:25:45.021Z,100733.50
2022-10-13T00:28:13.498Z,100729.06
2022-10-13T00:30:42.046Z,100734.22
2022-10-13T00:33:13.420Z,100721.94
2022-10-13T00:35:43.250Z,100722.94
2022-10-13T00:38:11.504Z,100730.03
2022-10-13T00:40:46.950Z,100727.34
2022-10-13T00:43:18.686Z,100729.25
2022-10-13T00:45:50.100Z,100727.78
2022-10-13T00:48:22.359Z,100730.75
2022-10-13T00:50:51.003Z,100729.47
2022-10-13T00:53:21.936Z,100727.38
2022-10-13T00:55:52.321Z,100725.94
2022-10-13T00:58:23.560Z,100722.78
2022-10-13T01:00:53.519Z,100723.00
2022-10-13T01:03:23.420Z,100717.63
2022-10-13T01:05:53.925Z,100727.22
2022-10-13T01:08:23.150Z,100719.47
2022-10-13T01:11:04.666Z,100717.41
2022-10-13T01:13:38.761Z,100718.38
2022-10-13T01:16:13.987Z,100714.06
2022-10-13T01:18:51.949Z,100727.19
2022-10-13T01:21:30.976Z,100732.47
2022-10-13T01:24:39.036Z,100735.28
2022-10-13T01:27:19.231Z,100725.59
2022-10-13T01:30:08.724Z,100717.63
2022-10-13T01:32:47.557Z,100717.84
2022-10-13T01:35:20.088Z,100717.97
2022-10-13T01:37:56.271Z,100725.00
2022-10-13T01:40:28.345Z,100721.38
2022-10-13T01:43:00.161Z,100716.13
2022-10-13T01:45:35.270Z,100717.78
2022-10-13T01:48:05.063Z,100704.56
2022-10-13T01:50:34.824Z,100705.28
2022-10-13T01:53:05.060Z,100708.66
2022-10-13T01:55:33.098Z,100714.00
2022-10-13T01:58:01.083Z,100716.63
2022-10-13T02:00:37.422Z,100721.22
2022-10-13T02:03:15.826Z,100709.00
2022-10-13T02:05:49.553Z,100709.16
2022-10-13T02:08:26.137Z,100701.38
2022-10-13T02:11:01.230Z,100699.72
2022-10-13T02:13:30.615Z,100701.22
2022-10-13T02:16:02.666Z,100699.25
2022-10-13T02:18:34.299Z,100706.97
2022-10-13T02:21:03.930Z,100702.34
2022-10-13T02:23:32.728Z,100705.03
2022-10-13T02:26:01.505Z,100705.84
2022-10-13T02:28:30.334Z,100696.09
2022-10-13T02:30:59.918Z,100699.50
2022-10-13T02:33:27.972Z,100702.06
2022-10-13T02:35:55.944Z,100701.09
2022-10-13T02:38:24.036Z,100705.34
2022-10-13T02:40:52.037Z,100699.25
2022-10-13T02:43:20.068Z,100700.19
2022-10-13T02:45:48.022Z,100706.47
2022-10-13T02:48:17.392Z,100699.94
2022-10-13T02:50:45.360Z,100698.31
2022-10-13T02:53:13.317Z,100706.38
2022-10-13T02:55:41.310Z,100701.22
2022-10-13T02:58:09.296Z,100703.97
2022-10-13T03:00:39.646Z,100704.91
2022-10-13T03:03:08.315Z,100697.84
2022-10-13T03:05:37.674Z,100706.69
2022-10-13T03:08:05.860Z,100709.38
2022-10-13T03:10:33.869Z,100710.28
2022-10-13T03:13:01.883Z,100701.53
2022-10-13T03:15:29.887Z,100703.31
2022-10-13T03:17:57.872Z,100704.44
2022-10-13T03:20:25.894Z,100709.78
2022-10-13T03:22:55.515Z,100698.47
2022-10-13T03:25:23.519Z,100703.03
2022-10-13T03:27:51.502Z,100705.81
2022-10-13T03:30:19.534Z,100702.41
2022-10-13T03:32:47.693Z,100704.25
2022-10-13T03:35:15.749Z,100698.84
2022-10-13T03:37:43.858Z,100701.50
2022-10-13T03:40:13.895Z,100697.13
2022-10-13T03:42:41.889Z,100695.53
2022-10-13T03:45:10.860Z,100694.66
2022-10-13T03:47:38.847Z,100698.88
2022-10-13T03:50:07.896Z,100698.00
2022-10-13T03:52:35.849Z,100692.78
2022-10-13T03:55:04.232Z,100696.47
2022-10-13T03:57:33.605Z,100695.94
2022-10-13T04:00:01.825Z,100692.47
2022-10-13T04:02:30.022Z,100689.25
2022-10-13T04:04:58.076Z,100691.84
2022-10-13T04:07:26.025Z,100689.16
2022-10-13T04:09:54.180Z,100677.69
2022-10-13T04:12:22.488Z,100687.34
2022-10-13T04:14:52.017Z,100686.59
2022-10-13T04:17:20.246Z,100682.09
2022-10-13T04:19:48.466Z,100682.09
2022-10-13T04:22:16.525Z,100684.75
2022-10-13T04:24:44.545Z,100682.09
2022-10-13T04:27:12.530Z,100685.44
2022-10-13T04:29:40.528Z,100682.75
2022-10-13T04:32:09.916Z,100685.56
2022-10-13T04:34:38.053Z,100687.28
2022-10-13T04:37:06.017Z,100685.56
2022-10-13T04:39:34.215Z,100684.75
2022-10-13T04:42:02.194Z,100690.00
2022-10-13T04:44:31.171Z,100688.19
2022-10-13T04:47:00.889Z,100683.19
2022-10-13T04:49:30.238Z,100684.97
2022-10-13T04:51:58.302Z,100685.72
2022-10-13T04:54:26.331Z,100690.13
2022-10-13T04:56:54.561Z,100684.97
2022-10-13T04:59:25.459Z,100692.78
2022-10-13T05:01:56.482Z,100693.75
2022-10-13T05:04:26.881Z,100684.13
2022-10-13T05:07:16.998Z,100686.69
2022-10-13T05:09:44.358Z,100684.88
2022-10-13T05:12:12.322Z,100687.59
2022-10-13T05:14:40.378Z,100683.25
2022-10-13T05:17:08.371Z,100688.50
2022-10-13T05:19:39.054Z,100691.97
2022-10-13T05:22:08.470Z,100687.59
2022-10-13T05:24:37.618Z,100685.66
2022-10-13T05:27:07.581Z,100688.91
2022-10-13T05:29:35.555Z,100689.44
2022-10-13T05:32:03.673Z,100690.91
2022-10-13T05:34:32.775Z,100689.72
2022-10-13T05:37:01.163Z,100687.94
2022-10-13T05:39:30.554Z,100696.66
2022-10-13T05:41:58.567Z,100696.34
2022-10-13T05:44:27.546Z,100694.94
2022-10-13T05:46:55.572Z,100684.91
2022-10-13T05:49:23.610Z,100692.19
2022-10-13T05:51:56.690Z,100699.53
2022-10-13T05:54:30.234Z,100691.16
2022-10-13T05:57:03.988Z,100696.09
2022-10-13T05:59:36.542Z,100694.63
2022-10-13T06:02:07.593Z,100699.19
2022-10-13T06:04:39.607Z,100699.22
2022-10-13T06:07:07.862Z,100703.03
2022-10-13T06:09:38.183Z,100708.47
2022-10-13T06:12:08.881Z,100709.47
2022-10-13T06:14:36.872Z,100703.34
2022-10-13T06:17:05.341Z,100712.22
2022-10-13T06:19:33.339Z,100713.44
2022-10-13T06:22:03.531Z,100712.53
2022-10-13T06:24:31.967Z,100718.88
2022-10-13T06:26:59.997Z,100717.22
2022-10-13T06:29:29.366Z,100724.22
2022-10-13T06:31:57.324Z,100722.84
2022-10-13T06:34:25.410Z,100712.47
2022-10-13T06:36:53.430Z,100711.94
2022-10-13T06:39:21.389Z,100701.78
2022-10-13T06:41:49.764Z,100716.75
2022-10-13T06:44:17.785Z,100714.47
2022-10-13T06:46:47.164Z,100720.97
2022-10-13T06:49:15.168Z,100717.06
2022-10-13T06:51:43.173Z,100706.53
2022-10-13T06:54:11.232Z,100715.66
2022-10-13T06:56:39.231Z,100705.47
2022-10-13T06:59:07.251Z,100708.44
2022-10-13T07:01:40.568Z,100710.91
2022-10-13T07:04:10.856Z,100704.84
2022-10-13T07:06:39.020Z,100704.34
2022-10-13T07:09:07.935Z,100706.53
2022-10-13T07:11:36.689Z,100702.56
2022-10-13T07:14:04.677Z,100704.06
2022-10-13T07:16:32.714Z,100714.16
2022-10-13T07:19:00.726Z,100715.53
2022-10-13T07:21:30.143Z,100715.03
2022-10-13T07:23:58.237Z,100702.25
2022-10-13T07:26:26.273Z,100708.41
2022-10-13T07:28:54.385Z,100706.00
2022-10-13T07:31:22.813Z,100703.94
2022-10-13T07:33:51.817Z,100707.03
2022-10-13T07:36:20.736Z,100700.22
2022-10-13T07:38:56.091Z,100707.41
2022-10-13T07:41:26.590Z,100706.50
2022-10-13T07:43:56.322Z,100704.66
2022-10-13T07:46:24.696Z,100700.53
2022-10-13T07:48:53.674Z,100698.47
2022-10-13T07:51:22.627Z,100694.00
2022-10-13T07:53:52.403Z,100699.06
2022-10-13T07:56:20.374Z,100701.00
2022-10-13T07:58:48.917Z,100702.09
2022-10-13T08:01:18.029Z,100701.19
2022-10-13T08:03:50.152Z,100699.03
2022-10-13T08:06:19.040Z,100695.34
2022-10-13T08:08:47.111Z,100699.78
2022-10-13T08:11:17.632Z,100698.75
2022-10-13T08:13:48.919Z,100698.09
2022-10-13T08:16:16.969Z,100686.25
2022-10-13T08:18:44.949Z,100695.31
2022-10-13T08:24:06.073Z,100681.00
2022-10-13T08:26:35.472Z,100684.97
2022-10-13T08:29:20.635Z,100676.94
2022-10-13T08:34:23.634Z,100678.22
2022-10-13T08:36:53.641Z,100678.94
2022-10-13T08:39:22.674Z,100673.66
2022-10-13T08:41:52.493Z,100668.78
2022-10-13T08:45:06.248Z,100674.75
2022-10-13T08:47:25.649Z,100674.88
2022-10-13T08:49:59.143Z,100665.63
2022-10-13T08:52:44.085Z,100673.50
2022-10-13T08:55:21.542Z,100666.16
2022-10-13T08:57:50.916Z,100659.69
2022-10-13T09:00:19.380Z,100656.19
2022-10-13T09:02:48.058Z,100658.97
2022-10-13T09:05:23.424Z,100661.63
2022-10-13T09:07:54.951Z,100654.53
2022-10-13T09:10:22.916Z,100656.44
2022-10-13T09:12:52.582Z,100658.59
2022-10-13T09:15:20.819Z,100669.34
2022-10-13T09:18:10.099Z,100660.06
2022-10-13T09:20:38.098Z,100651.44
2022-10-13T09:23:08.287Z,100651.75
2022-10-13T09:25:42.569Z,100649.22
2022-10-13T09:28:17.628Z,100649.41
2022-10-13T09:30:48.188Z,100647.91
2022-10-13T09:33:22.706Z,100654.28
2022-10-13T09:36:11.368Z,100646.00
2022-10-13T09:38:41.253Z,100644.09
2022-10-13T09:41:17.075Z,100649.22
2022-10-13T09:44:05.929Z,100640.56
2022-10-13T09:46:37.567Z,100645.44
2022-10-13T09:49:09.527Z,100637.44
2022-10-13T09:51:41.099Z,100647.44
2022-10-13T09:54:27.852Z,100629.72
2022-10-13T09:57:01.023Z,100628.22
2022-10-13T09:59:34.746Z,100625.22
2022-10-13T10:02:05.468Z,100630.38
2022-10-13T10:04:37.908Z,100630.97
2022-10-13T10:07:13.115Z,100629.69
2022-10-13T10:09:46.070Z,100625.50
2022-10-13T10:12:20.274Z,100624.38
2022-10-13T10:14:51.406Z,100622.63
2022-10-13T10:17:26.251Z,100619.13
2022-10-13T10:20:03.838Z,100613.44
2022-10-13T10:22:38.903Z,100599.47
2022-10-13T10:25:30.656Z,100604.44
2022-10-13T10:28:18.215Z,100607.09
2022-10-13T10:30:53.115Z,100606.91
2022-10-13T10:33:26.443Z,100600.03
2022-10-13T10:36:03.891Z,100598.63
2022-10-13T10:38:41.244Z,100601.22
2022-10-13T10:41:18.014Z,100597.28
2022-10-13T10:43:54.333Z,100592.50
2022-10-13T10:46:25.533Z,100586.84
2022-10-13T10:48:56.569Z,100578.00
2022-10-13T10:51:28.371Z,100574.47
2022-10-13T10:54:07.462Z,100578.34
2022-10-13T10:56:38.713Z,100566.25
2022-10-13T10:59:18.151Z,100566.38
2022-10-13T11:01:58.351Z,100563.63
2022-10-13T11:04:42.583Z,100557.84
2022-10-13T11:07:35.776Z,100553.94
2022-10-13T11:10:17.928Z,100554.22
2022-10-13T11:13:16.693Z,100553.94
2022-10-13T11:15:46.031Z,100551.31
2022-10-13T11:18:51.014Z,100544.28
2022-10-13T11:21:20.396Z,100541.81
2022-10-13T11:23:50.491Z,100545.00
2022-10-13T11:26:33.508Z,100535.75
2022-10-13T11:29:01.526Z,100543.03
2022-10-13T11:31:35.960Z,100535.06
2022-10-13T11:34:04.971Z,100533.22
2022-10-13T11:36:45.942Z,100530.06
2022-10-13T11:39:46.499Z,100523.13
2022-10-13T11:42:55.551Z,100524.44
2022-10-13T11:45:42.156Z,100508.09
2022-10-13T11:48:47.790Z,100505.91
2022-10-13T11:51:30.301Z,100499.81
2022-10-13T11:54:11.177Z,100500.41
2022-10-13T11:56:48.717Z,100497.34
2022-10-13T11:59:25.672Z,100492.69
2022-10-13T12:01:59.185Z,100493.84
2022-10-13T12:04:29.467Z,100492.25
2022-10-13T12:07:02.140Z,100490.91
2022-10-13T12:09:33.651Z,100488.09
2022-10-13T12:12:07.588Z,100485.91
2022-10-13T12:14:40.354Z,100479.34
2022-10-13T12:17:23.772Z,100470.72
2022-10-13T12:19:52.652Z,100474.69
2022-10-13T12:22:20.755Z,100465.44
2022-10-13T12:25:00.639Z,100469.34
2022-10-13T12:27:32.610Z,100471.34
2022-10-13T12:30:00.813Z,100468.19
2022-10-13T12:32:31.522Z,100468.34
2022-10-13T12:35:12.187Z,100455.06
2022-10-13T12:37:41.006Z,100456.13
2022-10-13T12:40:15.555Z,100461.63
2022-10-13T12:42:44.990Z,100453.63
2022-10-13T12:45:17.420Z,100451.53
2022-10-13T12:47:49.640Z,100448.75
2022-10-13T12:50:33.985Z,100446.34
2022-10-13T12:53:17.027Z,100446.59
2022-10-13T12:55:58.683Z,100444.75
2022-10-13T12:58:30.660Z,100445.50
2022-10-13T13:01:06.944Z,100441.72
2022-10-13T13:03:36.351Z,100449.59
2022-10-13T13:06:38.186Z,100444.13
2022-10-13T13:09:30.756Z,100443.41
2022-10-13T13:12:19.792Z,100430.09
2022-10-13T13:14:49.659Z,100434.47
2022-10-13T13:17:45.760Z,100433.47
2022-10-13T13:20:22.674Z,100434.00
2022-10-13T13:22:51.966Z,100427.81
2022-10-13T13:25:20.331Z,100431.44
2022-10-13T13:27:49.933Z,100418.22
2022-10-13T13:30:19.718Z,100421.88
2022-10-13T13:32:47.939Z,100423.09
2022-10-13T13:35:16.034Z,100425.19
2022-10-13T13:37:48.015Z,100421.78
2022-10-13T13:40:19.107Z,100414.41
2022-10-13T13:42:47.152Z,100417.09
2022-10-13T13:45:18.273Z,100419.16
2022-10-13T13:47:46.618Z,100417.09
2022-10-13T13:50:18.575Z,100409.94
2022-10-13T13:52:46.597Z,100410.31
2022-10-13T13:55:14.691Z,100417.84
2022-10-13T13:57:43.538Z,100413.56
2022-10-13T14:00:12.974Z,100412.13
2022-10-13T14:02:42.992Z,100408.28
2022-10-13T14:05:12.500Z,100405.84
2022-10-13T14:07:40.890Z,100405.00
2022-10-13T14:10:10.863Z,100403.78
2022-10-13T14:12:39.440Z,100415.06
2022-10-13T14:15:08.520Z,100410.84
2022-10-13T14:17:36.510Z,100405.97
2022-10-13T14:20:07.010Z,100403.59
2022-10-13T14:22:35.211Z,100405.78
2022-10-13T14:25:03.198Z,100403.56
2022-10-13T14:27:31.278Z,100405.63
2022-10-13T14:29:59.253Z,100396.31
2022-10-13T14:32:27.325Z,100398.84
2022-10-13T14:34:55.379Z,100398.84
2022-10-13T14:37:28.980Z,100391.31
2022-10-13T14:39:59.952Z,100397.16
2022-10-13T14:42:27.942Z,100396.78
2022-10-13T14:44:55.946Z,100392.66
2022-10-13T14:47:24.113Z,100389.59
2022-10-13T14:49:52.157Z,100384.78
2022-10-13T14:52:20.239Z,100392.25
2022-10-13T14:54:49.618Z,100392.59
2022-10-13T14:57:17.856Z,100393.06
2022-10-13T14:59:47.830Z,100391.22
2022-10-13T15:02:15.949Z,100391.59
2022-10-13T15:04:43.937Z,100386.00
2022-10-13T15:07:12.014Z,100392.66
2022-10-13T15:09:53.290Z,100386.91
2022-10-13T15:12:29.383Z,100386.66
2022-10-13T15:14:57.379Z,100382.22
2022-10-13T15:17:25.453Z,100383.06
2022-10-13T15:19:53.427Z,100388.19
2022-10-13T15:22:21.732Z,100387.03
2022-10-13T15:24:50.010Z,100379.75
2022-10-13T15:27:18.028Z,100381.22
2022-10-13T15:29:47.409Z,100380.84
2022-10-13T15:32:18.490Z,100385.63
2022-10-13T15:34:47.066Z,100375.56
2022-10-13T15:37:15.371Z,100379.41
2022-10-13T15:39:43.340Z,100379.72
2022-10-13T15:42:12.665Z,100376.84
2022-10-13T15:45:08.215Z,100383.91
2022-10-13T15:47:30.019Z,100383.16
2022-10-13T15:49:58.160Z,100372.66
2022-10-13T15:52:28.628Z,100384.25
2022-10-13T15:55:00.309Z,100388.78
2022-10-13T15:57:28.340Z,100378.97
2022-10-13T15:59:56.470Z,100382.38
2022-10-13T16:02:24.510Z,100384.03
2022-10-13T16:04:53.915Z,100380.50
2022-10-13T16:07:21.880Z,100377.16
2022-10-13T16:09:49.856Z,100380.16
2022-10-13T16:12:18.245Z,100381.78
2022-10-13T16:14:46.810Z,100382.38
2022-10-13T16:17:14.785Z,100381.63
2022-10-13T16:19:42.907Z,100384.47
2022-10-13T16:22:12.295Z,100379.09
2022-10-13T16:24:40.335Z,100382.69
2022-10-13T16:27:08.565Z,100386.00
2022-10-13T16:29:36.883Z,100382.97
2022-10-13T16:32:05.013Z,100381.66
2022-10-13T16:34:33.183Z,100380.41
2022-10-13T16:37:01.211Z,100382.50
2022-10-13T16:39:30.685Z,100385.31
2022-10-13T16:41:58.808Z,100383.34
2022-10-13T16:44:26.818Z,100380.00
2022-10-13T16:46:56.947Z,100382.84
2022-10-13T16:49:25.289Z,100392.75
2022-10-13T16:51:53.395Z,100393.88
2022-10-13T16:54:21.420Z,100384.63
2022-10-13T16:56:51.582Z,100387.53
2022-10-13T16:59:19.665Z,100393.28
2022-10-13T17:01:48.619Z,100395.63
2022-10-13T17:04:21.879Z,100397.00
2022-10-13T17:06:50.207Z,100397.72
2022-10-13T17:09:18.275Z,100393.59
2022-10-13T17:11:47.040Z,100397.84
2022-10-13T17:14:16.401Z,100395.31
2022-10-13T17:16:45.251Z,100400.06
2022-10-13T17:19:13.613Z,100399.38
2022-10-13T17:21:41.790Z,100395.31
2022-10-13T17:24:09.958Z,100398.22
2022-10-13T17:26:38.362Z,100398.63
2022-10-13T17:29:07.177Z,100399.66
2022-10-13T17:31:36.960Z,100386.97
2022-10-13T17:34:06.384Z,100396.66
2022-10-13T17:36:34.632Z,100398.09
2022-10-13T17:39:05.743Z,100391.19
2022-10-13T17:41:34.215Z,100401.00
2022-10-13T17:44:02.688Z,100398.88
2022-10-13T17:46:37.960Z,100395.53
2022-10-13T17:49:11.082Z,100397.31
2022-10-13T17:51:39.725Z,100388.53
2022-10-13T17:54:14.433Z,100394.84
2022-10-13T17:56:47.937Z,100392.53
2022-10-13T17:59:17.800Z,100391.94
2022-10-13T18:01:46.842Z,100392.25
2022-10-13T18:04:18.833Z,100387.34
2022-10-13T18:06:47.326Z,100389.38
2022-10-13T18:09:17.828Z,100396.84
2022-10-13T18:11:50.706Z,100397.69
2022-10-13T18:14:20.266Z,100400.34
2022-10-13T18:16:49.353Z,100391.06
2022-10-13T18:19:19.493Z,100391.22
2022-10-13T18:21:47.961Z,100390.59
2022-10-13T18:24:19.454Z,100388.91
2022-10-13T18:26:48.353Z,100395.09
2022-10-13T18:29:16.942Z,100391.69
2022-10-13T18:31:45.524Z,100390.84
2022-10-13T18:34:15.816Z,100384.84
2022-10-13T18:36:47.701Z,100384.06
2022-10-13T18:39:18.174Z,100393.88
2022-10-13T18:41:47.061Z,100385.34
2022-10-13T18:44:16.026Z,100379.25
2022-10-13T18:46:44.481Z,100377.84
2022-10-13T18:49:15.350Z,100376.34
2022-10-13T18:51:43.768Z,100373.00
2022-10-13T18:54:14.396Z,100370.56
2022-10-13T18:56:45.188Z,100377.69
2022-10-13T18:59:13.801Z,100378.63
2022-10-13T19:01:43.484Z,100379.84
2022-10-13T19:04:13.498Z,100379.56
2022-10-13T19:06:45.266Z,100385.59
2022-10-13T19:09:17.696Z,100377.06
2022-10-13T19:11:46.241Z,100377.19
2022-10-13T19:14:15.385Z,100377.84
2022-10-13T19:16:44.977Z,100371.16
2022-10-13T19:19:13.654Z,100365.28
2022-10-13T19:21:42.679Z,100372.38
2022-10-13T19:24:14.128Z,100374.16
2022-10-13T19:26:43.963Z,100378.75
2022-10-13T19:29:16.195Z,100373.47
2022-10-13T19:31:45.229Z,100379.06
2022-10-13T19:34:15.087Z,100377.50
2022-10-13T19:36:45.682Z,100375.78
2022-10-13T19:39:18.628Z,100374.16
2022-10-13T19:41:49.835Z,100370.97
2022-10-13T19:44:20.102Z,100377.31
2022-10-13T19:46:52.067Z,100378.31
2022-10-13T19:49:23.407Z,100377.44
2022-10-13T19:51:54.987Z,100380.22
2022-10-13T19:54:30.142Z,100379.50
2022-10-13T19:57:09.826Z,100378.44
2022-10-13T19:59:44.061Z,100381.16
2022-10-13T20:02:17.605Z,100369.56
2022-10-13T20:04:46.279Z,100367.94
2022-10-13T20:07:14.440Z,100376.47
2022-10-13T20:09:42.525Z,100383.78
2022-10-13T20:12:12.039Z,100376.81
2022-10-13T20:14:40.388Z,100376.09
2022-10-13T20:17:08.495Z,100388.22
2022-10-13T20:19:36.637Z,100385.53
2022-10-13T20:22:04.939Z,100383.75
2022-10-13T20:24:33.198Z,100379.41
2022-10-13T20:27:01.202Z,100390.22
2022-10-13T20:29:32.858Z,100387.06
2022-10-13T20:32:01.164Z,100390.78
2022-10-13T20:34:29.737Z,100382.88
2022-10-13T20:36:58.287Z,100390.78
2022-10-13T20:39:26.357Z,100384.78
2022-10-13T20:41:54.696Z,100384.09
2022-10-13T20:44:22.672Z,100386.06
2022-10-13T20:46:52.221Z,100386.22
2022-10-13T20:49:20.332Z,100388.91
2022-10-13T20:51:48.961Z,100386.50
2022-10-13T20:54:18.123Z,100381.09
2022-10-13T20:56:47.351Z,100382.06
2022-10-13T20:59:15.931Z,100376.91
2022-10-13T21:01:44.185Z,100379.66
2022-10-13T21:04:13.969Z,100383.00
2022-10-13T21:06:42.157Z,100379.66
2022-10-13T21:09:11.396Z,100378.09
2022-10-13T21:11:39.832Z,100383.44
2022-10-13T21:14:09.779Z,100377.44
2022-10-13T21:16:38.910Z,100381.00
2022-10-13T21:19:07.853Z,100384.78
2022-10-13T21:21:37.999Z,100389.34
2022-10-13T21:24:08.577Z,100375.50
2022-10-13T21:26:36.979Z,100378.25
2022-10-13T21:29:05.533Z,100378.34
2022-10-13T21:31:33.485Z,100372.19
2022-10-13T21:34:01.453Z,100374.84
2022-10-13T21:36:31.219Z,100375.84
2022-10-13T21:39:02.458Z,100375.19
2022-10-13T21:41:30.738Z,100375.41
2022-10-13T21:44:00.278Z,100380.97
2022-10-13T21:46:30.077Z,100371.56
2022-10-13T21:48:59.676Z,100378.56
2022-10-13T21:51:29.780Z,100372.66
2022-10-13T21:54:01.514Z,100369.25
2022-10-13T21:56:29.813Z,100374.56
2022-10-13T21:58:57.863Z,100375.41
2022-10-13T22:01:25.965Z,100373.66
2022-10-13T22:03:56.389Z,100375.38
2022-10-13T22:06:24.373Z,100367.53
2022-10-13T22:08:54.025Z,100372.84
2022-10-13T22:11:25.589Z,100368.66
2022-10-13T22:13:53.919Z,100365.44
2022-10-13T22:16:23.829Z,100368.38
2022-10-13T22:18:53.004Z,100356.47
2022-10-13T22:21:23.811Z,100366.16
2022-10-13T22:23:51.869Z,100368.06
2022-10-13T22:26:20.777Z,100355.00
2022-10-13T22:28:52.031Z,100360.28
2022-10-13T22:31:22.817Z,100364.47
2022-10-13T22:33:53.698Z,100364.56
2022-10-13T22:36:23.804Z,100350.38
2022-10-13T22:38:53.657Z,100351.47
2022-10-13T22:41:22.483Z,100347.94
2022-10-13T22:43:53.057Z,100345.34
2022-10-13T22:46:22.304Z,100345.50
2022-10-13T22:48:50.915Z,100348.91
2022-10-13T22:51:20.794Z,100340.25
2022-10-13T22:53:50.211Z,100347.00
2022-10-13T22:56:20.076Z,100351.66
2022-10-13T22:58:52.073Z,100348.28
2022-10-13T23:01:21.157Z,100347.44
2022-10-13T23:03:49.969Z,100349.19
2022-10-13T23:06:20.527Z,100345.53
2022-10-13T23:08:48.713Z,100349.03
2022-10-13T23:11:17.384Z,100348.13
2022-10-13T23:13:45.438Z,100347.19
2022-10-13T23:16:16.605Z,100341.22
2022-10-13T23:18:44.933Z,100339.44
2022-10-13T23:21:15.661Z,100340.38
2022-10-13T23:23:44.083Z,100339.72
2022-10-13T23:26:13.854Z,100333.53
2022-10-13T23:28:42.429Z,100338.78
2022-10-13T23:31:14.336Z,100332.59
2022-10-13T23:33:44.387Z,100330.97
2022-10-13T23:36:16.230Z,100331.88
2022-10-13T23:38:44.735Z,100333.72
2022-10-13T23:41:15.310Z,100339.00
2022-10-13T23:43:44.082Z,100326.81
2022-10-13T23:46:12.867Z,100340.00
2022-10-13T23:48:41.899Z,100340.25
2022-10-13T23:51:13.530Z,100339.28
2022-10-13T23:53:42.321Z,100341.06
2022-10-13T23:56:11.519Z,100336.00
2022-10-13T23:58:40.609Z,100329.03
